Time;durP1;ratioP1;P1;durP2;ratioP2;P2;SDS_P1;SDS_P2;PMS_P1;PMS_P2;Temp;Humidity;BMP_temperature;BMP_pressure;BME280_temperature;BME280_humidity;BME280_pressure;Samples;Min_cycle;Max_cycle;Signal;HPM_P1;HPM_P2
2023/08/01 00:00:14;;;;;;;5.60;2.90;;;;;;;14.05;73.43;96625.91;104654;1268;96271;-80
2023/08/01 00:46:48;;;;;;;5.70;3.70;;;;;;;13.26;74.98;96592.66;105345;1266;95647;-82
2023/08/01 00:49:15;;;;;;;3.30;2.80;;;;;;;13.21;75.15;96590.92;107765;1240;96784;-79
2023/08/01 00:51:41;;;;;;;7.30;3.30;;;;;;;13.20;75.31;96590.00;107686;1244;96434;-78
2023/08/01 00:54:07;;;;;;;6.70;3.40;;;;;;;13.20;75.48;96588.36;107341;1249;96174;-78
2023/08/01 00:56:34;;;;;;;4.70;3.30;;;;;;;13.14;75.27;96581.07;107718;1243;95804;-78
2023/08/01 00:59:00;;;;;;;4.90;3.00;;;;;;;13.06;75.48;96574.89;107813;1248;95833;-79
2023/08/01 01:01:28;;;;;;;5.10;3.10;;;;;;;12.96;75.59;96565.38;107763;1248;96087;-78
2023/08/01 01:03:54;;;;;;;4.50;3.10;;;;;;;12.90;76.00;96568.05;107699;1243;95825;-78
2023/08/01 01:06:28;;;;;;;4.40;3.70;;;;;;;12.91;76.21;96567.41;107801;1243;95928;-78
2023/08/01 01:08:55;;;;;;;7.40;3.80;;;;;;;12.87;76.22;96562.20;107934;1242;95862;-81
2023/08/01 01:11:21;;;;;;;9.80;3.50;;;;;;;12.83;76.52;96558.55;107934;1239;96732;-81
2023/08/01 01:13:48;;;;;;;7.00;3.60;;;;;;;12.86;76.66;96553.19;107905;1240;95894;-81
2023/08/01 01:16:14;;;;;;;4.10;3.60;;;;;;;12.89;76.74;96544.53;107902;1237;96212;-81
2023/08/01 01:18:41;;;;;;;8.60;3.70;;;;;;;12.92;76.64;96538.66;107834;1246;97087;-81
2023/08/01 01:21:07;;;;;;;11.30;3.40;;;;;;;12.88;76.38;96537.19;107958;1237;95907;-81
2023/08/01 01:23:52;;;;;;;9.50;3.40;;;;;;;12.84;76.44;96535.70;108007;1239;101291;-81
2023/08/01 01:26:21;;;;;;;5.50;3.70;;;;;;;12.78;76.56;96532.80;107912;1246;95797;-81
2023/08/01 01:28:52;;;;;;;4.60;3.00;;;;;;;12.75;76.81;96532.14;107626;1240;100464;-81
2023/08/01 01:31:20;;;;;;;4.50;3.30;;;;;;;12.75;76.83;96529.67;107541;1242;95844;-81
2023/08/01 01:33:46;;;;;;;8.00;3.70;;;;;;;12.76;76.76;96527.02;107949;1238;95815;-81
2023/08/01 01:36:12;;;;;;;5.30;3.60;;;;;;;12.75;76.68;96523.02;107848;1238;96312;-81
2023/08/01 01:38:39;;;;;;;9.10;3.80;;;;;;;12.69;76.79;96519.81;107941;1240;95833;-81
2023/08/01 01:41:05;;;;;;;4.70;3.60;;;;;;;12.68;76.94;96520.62;108003;1237;95833;-81
2023/08/01 01:43:31;;;;;;;7.90;3.10;;;;;;;12.70;77.03;96517.83;108011;1234;96071;-81
2023/08/01 01:45:58;;;;;;;5.90;3.40;;;;;;;12.72;77.06;96512.29;108049;1242;95901;-81
2023/08/01 01:48:24;;;;;;;4.50;3.40;;;;;;;12.74;76.92;96504.36;107972;1247;96295;-81
2023/08/01 01:50:50;;;;;;;5.70;3.20;;;;;;;12.72;76.80;96499.88;107850;1246;96736;-81
2023/08/01 01:53:16;;;;;;;4.50;3.10;;;;;;;12.69;76.78;96497.06;107922;1238;95970;-81
2023/08/01 01:55:43;;;;;;;6.00;3.50;;;;;;;12.63;76.76;96487.02;108001;1247;95799;-81
2023/08/01 01:58:09;;;;;;;8.80;4.40;;;;;;;12.59;76.82;96488.52;107963;1246;95850;-81
2023/08/01 02:00:35;;;;;;;6.80;3.30;;;;;;;12.60;77.17;96482.80;108035;1239;95933;-81
2023/08/01 02:03:02;;;;;;;7.60;3.30;;;;;;;12.61;77.08;96482.55;107952;1237;95920;-81
2023/08/01 02:05:30;;;;;;;5.30;4.00;;;;;;;12.59;77.11;96474.94;107928;1238;96075;-81
2023/08/01 02:07:57;;;;;;;5.00;3.50;;;;;;;12.60;77.01;96479.17;108005;1235;97186;-81
2023/08/01 02:10:23;;;;;;;6.80;3.70;;;;;;;12.57;77.16;96479.16;108044;1247;95841;-81
2023/08/01 02:12:50;;;;;;;8.30;3.90;;;;;;;12.48;77.06;96478.05;107982;1237;96507;-81
2023/08/01 02:15:16;;;;;;;9.90;4.00;;;;;;;12.38;77.22;96477.89;107862;1240;101532;-81
2023/08/01 02:17:42;;;;;;;11.10;4.30;;;;;;;12.28;77.52;96469.34;107927;1248;95819;-81
2023/08/01 02:20:09;;;;;;;7.60;4.00;;;;;;;12.26;77.73;96470.48;107995;1246;95806;-82
2023/08/01 02:22:35;;;;;;;10.90;4.60;;;;;;;12.22;77.88;96472.79;108026;1246;95809;-81
2023/08/01 02:25:02;;;;;;;9.70;4.10;;;;;;;12.17;77.98;96466.54;107918;1237;101523;-81
2023/08/01 02:27:28;;;;;;;5.70;4.50;;;;;;;12.12;78.01;96464.23;108037;1247;96645;-82
2023/08/01 02:29:54;;;;;;;9.20;4.30;;;;;;;12.08;78.26;96456.05;107962;1235;96153;-81
2023/08/01 02:32:20;;;;;;;6.80;4.80;;;;;;;12.06;78.51;96451.36;108171;1246;96200;-81
2023/08/01 02:34:47;;;;;;;7.90;4.40;;;;;;;12.07;78.68;96450.63;107926;1237;101580;-81
2023/08/01 02:37:13;;;;;;;4.90;3.90;;;;;;;12.04;78.64;96445.16;107982;1237;96101;-82
2023/08/01 02:39:40;;;;;;;9.00;4.50;;;;;;;12.00;78.81;96437.79;107979;1239;96760;-81
2023/08/01 02:42:06;;;;;;;6.00;4.40;;;;;;;12.01;79.11;96439.44;108020;1235;95834;-81
2023/08/01 02:44:32;;;;;;;10.20;4.60;;;;;;;12.04;79.30;96438.02;107978;1241;101531;-80
2023/08/01 02:46:59;;;;;;;5.60;4.70;;;;;;;12.09;79.33;96442.42;108024;1237;95970;-81
2023/08/01 02:49:25;;;;;;;6.30;4.50;;;;;;;12.12;79.36;96436.92;107973;1238;96732;-81
2023/08/01 02:51:52;;;;;;;6.40;4.30;;;;;;;12.19;79.20;96438.49;108050;1239;96229;-80
2023/08/01 02:54:18;;;;;;;7.20;5.00;;;;;;;12.21;79.06;96440.19;107917;1238;101618;-80
2023/08/01 02:56:44;;;;;;;8.30;4.40;;;;;;;12.23;78.90;96442.50;107910;1238;95824;-80
2023/08/01 02:59:10;;;;;;;5.90;3.70;;;;;;;12.22;78.77;96434.31;108015;1236;96734;-80
2023/08/01 03:01:38;;;;;;;7.10;3.90;;;;;;;12.18;78.64;96426.63;108079;1240;95819;-81
2023/08/01 03:04:06;;;;;;;6.80;4.30;;;;;;;12.15;78.77;96427.55;107492;1244;101186;-81
2023/08/01 03:06:33;;;;;;;7.60;4.20;;;;;;;12.15;78.88;96424.25;108051;1237;102090;-80
2023/08/01 03:09:00;;;;;;;7.00;4.50;;;;;;;12.11;78.76;96418.23;107989;1248;95961;-81
2023/08/01 03:11:27;;;;;;;9.70;4.30;;;;;;;12.07;78.88;96414.96;107541;1244;96267;-82
2023/08/01 04:58:55;;;;;;;11.20;6.50;;;;;;;14.87;80.00;96351.16;104896;1266;643843;-83
2023/08/01 05:01:25;;;;;;;10.80;6.10;;;;;;;15.12;79.89;96344.23;107525;1238;146881;-80
2023/08/01 05:03:51;;;;;;;6.40;5.50;;;;;;;15.13;79.98;96340.92;107583;1239;95917;-79
2023/08/01 05:06:18;;;;;;;11.50;5.90;;;;;;;15.12;80.33;96338.42;107588;1238;95831;-79
2023/08/01 05:10:45;;;;;;;8.80;6.60;;;;;;;15.19;80.33;96334.54;102022;1292;642577;-81
2023/08/01 05:22:35;;;;;;;9.30;7.70;;;;;;;15.39;79.80;96324.27;103142;1285;636196;-81
2023/08/01 05:25:04;;;;;;;17.30;9.30;;;;;;;15.38;79.79;96321.44;104426;1266;96469;-81
2023/08/01 05:39:42;;;;;;;13.70;11.30;;;;;;;15.79;79.99;96311.62;102348;1288;641234;-79
2023/08/01 05:42:10;;;;;;;20.90;11.40;;;;;;;16.00;80.00;96311.77;103881;1288;226016;-78
2023/08/01 05:44:38;;;;;;;17.60;10.90;;;;;;;16.03;80.24;96315.59;104202;1273;95900;-81
2023/08/01 05:47:06;;;;;;;10.70;7.10;;;;;;;16.07;80.09;96316.51;104305;1273;110163;-80
2023/08/01 05:49:33;;;;;;;10.20;6.90;;;;;;;16.08;79.63;96307.67;104402;1273;100327;-80
2023/08/01 05:52:01;;;;;;;11.00;6.70;;;;;;;16.11;79.68;96305.56;104271;1273;100880;-80
2023/08/01 05:54:29;;;;;;;8.60;6.30;;;;;;;16.15;79.75;96299.20;104136;1268;96800;-81
2023/08/01 05:56:56;;;;;;;8.60;5.60;;;;;;;16.24;79.89;96304.25;104211;1273;95877;-80
2023/08/01 05:59:24;;;;;;;8.50;5.90;;;;;;;16.34;80.12;96297.59;104290;1269;98490;-80
2023/08/01 06:01:52;;;;;;;9.20;5.90;;;;;;;16.41;79.83;96303.95;104233;1269;102393;-80
2023/08/01 06:04:19;;;;;;;8.90;6.00;;;;;;;16.51;79.87;96300.07;104691;1262;100799;-80
2023/08/01 06:06:47;;;;;;;11.30;5.00;;;;;;;16.62;79.99;96304.59;104616;1265;95955;-80
2023/08/01 06:09:15;;;;;;;10.20;5.30;;;;;;;16.73;79.62;96300.66;104674;1266;95855;-80
2023/08/01 06:11:43;;;;;;;7.00;5.30;;;;;;;16.83;79.34;96294.67;104542;1266;102039;-80
2023/08/01 06:14:11;;;;;;;12.00;5.40;;;;;;;16.95;79.14;96295.29;104641;1265;102396;-80
2023/08/01 06:16:38;;;;;;;9.70;5.40;;;;;;;17.09;79.20;96297.41;104559;1265;108429;-81
2023/08/01 06:19:06;;;;;;;7.80;5.60;;;;;;;17.21;79.04;96290.37;104528;1265;95808;-81
2023/08/01 06:21:34;;;;;;;11.50;5.60;;;;;;;17.31;78.88;96287.11;104584;1260;96265;-81
2023/08/01 06:24:02;;;;;;;8.60;5.10;;;;;;;17.38;78.63;96291.05;104526;1265;101545;-81
2023/08/01 06:26:29;;;;;;;8.50;5.60;;;;;;;17.45;78.13;96290.52;104573;1262;102228;-81
2023/08/01 06:28:57;;;;;;;6.50;4.70;;;;;;;17.48;77.87;96287.13;104536;1275;97763;-81
2023/08/01 06:31:25;;;;;;;6.80;5.30;;;;;;;17.52;77.84;96288.28;104553;1261;95838;-81
2023/08/01 06:33:52;;;;;;;5.90;4.90;;;;;;;17.56;78.15;96284.99;104538;1267;95858;-81
2023/08/01 06:36:20;;;;;;;9.60;5.80;;;;;;;17.59;78.10;96284.92;104586;1262;101469;-81
2023/08/01 06:38:48;;;;;;;12.90;6.50;;;;;;;17.60;78.29;96283.55;104557;1260;102351;-81
2023/08/01 06:41:15;;;;;;;15.10;8.00;;;;;;;17.61;78.62;96282.84;104531;1265;100771;-81
2023/08/01 06:43:43;;;;;;;13.70;6.80;;;;;;;17.62;78.58;96282.50;104514;1265;95858;-81
2023/08/01 06:46:11;;;;;;;10.40;4.90;;;;;;;17.61;78.84;96281.64;104489;1267;96910;-81
2023/08/01 06:48:38;;;;;;;7.10;5.10;;;;;;;17.64;78.43;96284.96;104544;1265;101984;-81
2023/08/01 06:51:06;;;;;;;11.30;5.10;;;;;;;17.69;78.24;96281.23;104602;1265;109948;-80
2023/08/01 06:53:34;;;;;;;11.40;5.50;;;;;;;17.74;78.50;96276.07;104700;1260;100807;-81
2023/08/01 06:56:01;;;;;;;8.90;5.30;;;;;;;17.79;78.81;96278.59;104571;1281;95798;-81
2023/08/01 06:58:29;;;;;;;9.00;5.80;;;;;;;17.84;79.11;96275.06;104580;1261;96529;-81
2023/08/01 07:00:58;;;;;;;12.90;5.80;;;;;;;17.90;79.66;96275.83;104555;1262;101714;-81
2023/08/01 07:03:26;;;;;;;9.50;5.90;;;;;;;17.94;79.83;96274.43;104727;1263;102157;-81
2023/08/01 07:05:53;;;;;;;9.60;5.80;;;;;;;17.97;79.88;96274.20;104721;1259;100655;-81
2023/08/01 07:08:21;;;;;;;7.40;5.80;;;;;;;17.99;79.59;96276.09;104706;1262;95843;-81
2023/08/01 07:10:49;;;;;;;8.50;5.70;;;;;;;18.01;79.61;96280.58;104746;1262;95852;-81
2023/08/01 07:13:19;;;;;;;9.30;6.00;;;;;;;18.02;79.78;96277.59;104957;1260;108652;-82
2023/08/01 07:15:47;;;;;;;10.20;5.00;;;;;;;18.00;79.27;96280.86;104607;1265;110089;-81
2023/08/01 07:18:15;;;;;;;6.70;4.30;;;;;;;18.01;78.42;96285.19;104730;1264;100881;-80
2023/08/01 07:20:42;;;;;;;8.50;5.10;;;;;;;18.00;78.04;96289.02;104763;1262;96174;-81
2023/08/01 07:23:10;;;;;;;7.60;5.00;;;;;;;18.03;77.71;96290.69;104876;1262;95855;-81
2023/08/01 07:25:38;;;;;;;6.90;5.00;;;;;;;18.07;77.80;96292.95;104650;1262;101822;-80
2023/08/01 07:28:05;;;;;;;8.10;4.60;;;;;;;18.08;77.65;96288.86;104768;1273;102097;-81
2023/08/01 07:30:33;;;;;;;6.30;5.00;;;;;;;18.10;77.39;96286.49;104711;1273;100804;-81
2023/08/01 07:33:01;;;;;;;9.20;5.00;;;;;;;18.10;77.43;96282.94;104769;1262;96246;-81
2023/08/01 07:35:28;;;;;;;6.60;4.70;;;;;;;18.11;77.44;96280.80;104757;1262;95890;-81
2023/08/01 07:37:56;;;;;;;7.30;5.10;;;;;;;18.12;77.79;96276.13;104717;1259;101618;-82
2023/08/01 07:40:24;;;;;;;7.60;4.70;;;;;;;18.14;78.06;96272.56;104765;1262;102365;-81
2023/08/01 07:42:52;;;;;;;8.10;5.10;;;;;;;18.17;78.14;96267.63;104735;1259;100720;-81
2023/08/01 07:45:20;;;;;;;12.50;5.40;;;;;;;18.19;78.44;96268.54;104689;1262;96851;-81
2023/08/01 07:47:47;;;;;;;8.10;5.80;;;;;;;18.23;78.80;96268.18;104809;1260;97249;-82
2023/08/01 07:50:15;;;;;;;7.80;5.00;;;;;;;18.25;78.98;96264.65;104923;1262;109160;-82
2023/08/01 07:52:43;;;;;;;7.90;5.00;;;;;;;18.26;78.98;96266.66;104934;1258;101946;-83
2023/08/01 07:55:11;;;;;;;9.30;5.40;;;;;;;18.28;78.86;96270.52;104930;1262;100711;-82
2023/08/01 07:57:38;;;;;;;8.00;5.40;;;;;;;18.31;78.65;96270.50;104913;1259;95753;-82
2023/08/01 08:00:07;;;;;;;7.80;5.40;;;;;;;18.34;78.85;96268.52;104939;1258;95906;-83
2023/08/01 08:02:34;;;;;;;9.80;5.70;;;;;;;18.36;79.08;96267.39;104872;1262;99353;-82
2023/08/01 08:05:02;;;;;;;6.40;5.30;;;;;;;18.38;79.30;96265.40;104789;1262;100224;-82
2023/08/01 08:07:30;;;;;;;7.20;4.90;;;;;;;18.41;79.41;96264.45;104830;1262;98614;-83
2023/08/01 08:09:57;;;;;;;7.00;5.40;;;;;;;18.40;79.25;96262.05;104725;1262;96809;-82
2023/08/01 08:12:25;;;;;;;8.60;5.20;;;;;;;18.39;79.51;96259.88;104764;1271;96009;-82
2023/08/01 08:14:53;;;;;;;6.70;5.10;;;;;;;18.36;79.06;96252.21;104737;1262;101744;-82
2023/08/01 08:17:21;;;;;;;7.80;5.40;;;;;;;18.33;79.10;96246.23;104718;1259;108158;-83
2023/08/01 08:19:48;;;;;;;9.60;5.80;;;;;;;18.33;79.24;96240.77;105200;1262;100750;-82
2023/08/01 08:22:16;;;;;;;7.90;5.30;;;;;;;18.37;79.54;96240.93;104768;1259;96022;-83
2023/08/01 08:24:44;;;;;;;8.60;4.90;;;;;;;18.39;79.66;96237.96;104715;1262;97308;-82
2023/08/01 08:27:12;;;;;;;8.90;4.90;;;;;;;18.41;79.68;96240.90;104731;1262;101487;-83
2023/08/01 08:29:39;;;;;;;7.00;5.30;;;;;;;18.43;79.70;96246.29;104709;1262;102165;-82
2023/08/01 08:32:08;;;;;;;9.20;5.70;;;;;;;18.46;79.55;96246.27;104643;1262;100788;-82
2023/08/01 08:34:35;;;;;;;6.20;5.10;;;;;;;18.49;79.58;96238.73;104799;1280;96016;-82
2023/08/01 08:37:03;;;;;;;11.20;5.20;;;;;;;18.53;79.76;96235.24;104688;1262;95826;-83
2023/08/01 08:39:31;;;;;;;11.10;5.50;;;;;;;18.56;79.97;96230.48;104724;1266;101558;-83
2023/08/01 08:42:01;;;;;;;7.50;5.80;;;;;;;18.60;80.10;96229.08;104743;1262;102108;-82
2023/08/01 08:44:30;;;;;;;7.80;5.20;;;;;;;18.63;79.95;96232.16;104680;1265;100681;-82
2023/08/01 08:47:03;;;;;;;7.50;5.30;;;;;;;18.67;80.04;96235.95;104735;1259;95921;-82
2023/08/01 08:49:33;;;;;;;6.60;5.90;;;;;;;18.72;80.16;96236.20;104551;1265;95948;-83
2023/08/01 08:52:03;;;;;;;8.50;5.60;;;;;;;18.74;80.03;96232.95;104775;1275;101691;-82
2023/08/01 08:54:32;;;;;;;8.10;5.50;;;;;;;18.73;80.04;96230.11;104799;1257;102338;-82
2023/08/01 08:57:00;;;;;;;6.50;4.60;;;;;;;18.77;80.02;96224.61;104707;1275;98873;-83
2023/08/01 08:59:30;;;;;;;7.40;5.20;;;;;;;18.85;79.91;96221.84;104675;1262;95928;-83
2023/08/01 09:01:58;;;;;;;5.60;4.60;;;;;;;18.93;79.90;96210.54;104594;1265;97196;-83
2023/08/01 09:04:25;;;;;;;6.50;4.80;;;;;;;19.02;79.64;96204.73;104958;1261;101809;-82
2023/08/01 09:06:59;;;;;;;10.80;4.60;;;;;;;19.15;79.77;96203.40;104897;1262;100088;-83
2023/08/01 09:09:27;;;;;;;7.20;4.80;;;;;;;19.31;79.55;96195.06;104699;1259;99105;-83
2023/08/01 09:11:56;;;;;;;5.50;4.10;;;;;;;19.45;79.22;96187.91;104707;1262;95848;-83
2023/08/01 09:14:24;;;;;;;9.30;4.70;;;;;;;19.54;78.76;96187.35;104766;1258;96694;-83
2023/08/01 09:16:51;;;;;;;9.50;5.00;;;;;;;19.65;78.33;96183.61;104778;1265;101570;-83
2023/08/01 09:19:21;;;;;;;5.80;4.40;;;;;;;19.84;78.32;96182.98;104792;1259;109206;-82
2023/08/01 09:21:48;;;;;;;7.60;4.30;;;;;;;20.00;77.98;96181.84;104772;1259;97879;-85
2023/08/01 09:24:18;;;;;;;6.90;4.50;;;;;;;20.13;77.18;96174.92;104628;1264;96746;-83
2023/08/01 09:26:48;;;;;;;7.90;4.40;;;;;;;20.21;76.92;96173.34;104759;1262;96019;-83
2023/08/01 09:29:21;;;;;;;12.70;4.40;;;;;;;20.31;77.28;96171.29;104663;1264;99846;-83
2023/08/01 09:31:49;;;;;;;6.30;4.10;;;;;;;20.37;76.92;96174.94;104499;1265;100536;-83
2023/08/01 09:34:22;;;;;;;7.80;4.40;;;;;;;20.39;76.62;96170.41;104311;1266;100612;-83
2023/08/01 09:36:51;;;;;;;5.60;4.40;;;;;;;20.42;76.76;96170.60;104497;1263;96091;-85
2023/08/01 09:39:20;;;;;;;5.50;4.00;;;;;;;20.45;76.62;96168.57;104511;1268;96071;-86
2023/08/01 09:42:02;;;;;;;6.30;4.80;;;;;;;20.48;76.38;96165.67;104518;1268;99690;-86
2023/08/01 09:44:31;;;;;;;10.50;5.00;;;;;;;20.55;76.51;96172.61;104504;1265;100510;-87
2023/08/01 09:47:06;;;;;;;6.10;4.60;;;;;;;20.62;76.45;96179.05;104149;1273;99007;-83
2023/08/01 09:49:36;;;;;;;6.60;4.10;;;;;;;20.68;76.16;96180.63;104515;1268;96587;-84
2023/08/01 09:52:04;;;;;;;8.70;4.60;;;;;;;20.71;75.95;96178.00;104384;1266;96996;-83
2023/08/01 09:54:32;;;;;;;6.60;4.60;;;;;;;20.75;76.18;96175.34;104506;1267;103027;-83
2023/08/01 09:57:02;;;;;;;5.20;4.40;;;;;;;20.80;76.23;96166.88;104630;1264;100181;-83
2023/08/01 09:59:31;;;;;;;5.10;4.60;;;;;;;20.85;76.23;96156.73;104574;1265;101010;-84
2023/08/01 10:02:00;;;;;;;7.30;4.60;;;;;;;20.90;76.19;96153.77;104472;1262;96969;-84
2023/08/01 10:04:30;;;;;;;6.80;5.30;;;;;;;20.97;76.05;96148.59;104721;1259;97937;-84
2023/08/01 10:07:00;;;;;;;8.20;5.30;;;;;;;21.07;76.24;96143.30;104775;1262;103073;-84
2023/08/01 10:09:30;;;;;;;6.80;5.40;;;;;;;21.18;76.14;96136.86;104709;1262;102213;-84
2023/08/01 10:11:59;;;;;;;6.80;4.90;;;;;;;21.28;75.78;96136.28;104859;1262;100988;-84
2023/08/01 10:14:27;;;;;;;5.90;5.00;;;;;;;21.34;75.59;96130.21;104912;1262;97570;-84
2023/08/01 10:16:55;;;;;;;7.70;5.00;;;;;;;21.38;75.52;96123.47;104684;1262;97097;-84
2023/08/01 10:19:23;;;;;;;4.90;4.50;;;;;;;21.36;75.17;96118.75;105090;1262;101294;-86
2023/08/01 10:21:52;;;;;;;5.40;4.10;;;;;;;21.33;74.63;96110.21;104873;1262;101970;-84
2023/08/01 10:24:20;;;;;;;5.90;4.10;;;;;;;21.35;74.60;96103.09;104799;1269;100721;-84
2023/08/01 10:26:48;;;;;;;4.70;4.20;;;;;;;21.38;74.75;96096.18;104760;1275;96889;-84
2023/08/01 10:29:16;;;;;;;5.20;4.30;;;;;;;21.39;74.85;96093.90;104710;1259;97722;-85
2023/08/01 10:31:54;;;;;;;5.50;4.50;;;;;;;21.38;74.92;96091.34;104756;1278;102896;-84
2023/08/01 10:34:22;;;;;;;5.40;4.50;;;;;;;21.37;75.05;96086.76;104734;1259;102124;-84
2023/08/01 10:37:01;;;;;;;5.50;4.40;;;;;;;21.34;74.93;96090.52;104872;1259;98896;-84
2023/08/01 10:39:30;;;;;;;4.70;4.10;;;;;;;21.31;75.20;96098.34;104825;1262;96745;-83
2023/08/01 10:42:00;;;;;;;6.60;4.50;;;;;;;21.26;75.50;96104.82;104752;1259;97498;-84
2023/08/01 10:44:30;;;;;;;5.90;4.40;;;;;;;21.23;75.73;96105.02;104973;1259;103111;-83
2023/08/01 10:47:01;;;;;;;6.30;4.30;;;;;;;21.18;76.00;96107.13;104704;1266;100101;-83
2023/08/01 10:49:44;;;;;;;8.80;5.30;;;;;;;21.11;76.30;96109.26;104859;1262;100712;-83
2023/08/01 10:52:21;;;;;;;7.10;4.40;;;;;;;21.05;76.46;96099.61;104879;1260;96553;-83
2023/08/01 10:55:03;;;;;;;4.80;4.20;;;;;;;21.02;76.73;96089.70;104989;1262;97226;-83
2023/08/01 10:57:33;;;;;;;6.30;4.20;;;;;;;20.99;76.84;96087.98;104865;1262;100700;-83
2023/08/01 11:00:01;;;;;;;7.50;4.60;;;;;;;20.96;77.14;96089.86;104734;1264;100273;-83
2023/08/01 11:02:32;;;;;;;5.20;4.60;;;;;;;20.93;77.39;96084.48;104778;1275;100954;-83
2023/08/01 11:05:04;;;;;;;8.70;4.90;;;;;;;20.88;77.41;96077.64;104766;1262;96642;-83
2023/08/01 11:07:33;;;;;;;4.90;4.00;;;;;;;20.83;77.56;96078.34;104842;1261;97881;-83
2023/08/01 11:10:04;;;;;;;4.60;4.10;;;;;;;20.79;77.53;96083.58;104773;1261;103042;-83
2023/08/01 11:12:38;;;;;;;5.40;4.10;;;;;;;20.75;77.66;96094.50;104687;1262;100255;-83
2023/08/01 11:15:08;;;;;;;6.10;4.40;;;;;;;20.72;77.85;96102.56;104651;1265;99181;-83
2023/08/01 11:17:40;;;;;;;4.90;4.30;;;;;;;20.68;77.49;96099.52;104758;1260;97485;-83
2023/08/01 11:20:11;;;;;;;5.00;4.00;;;;;;;20.61;77.70;96095.13;104625;1264;97002;-83
2023/08/01 11:22:57;;;;;;;7.20;4.60;;;;;;;20.57;78.03;96092.30;104684;1261;101390;-83
2023/08/01 11:25:43;;;;;;;5.30;4.10;;;;;;;20.55;78.30;96095.18;104787;1260;102149;-82
2023/08/01 11:28:14;;;;;;;5.70;4.20;;;;;;;20.54;78.33;96092.84;104725;1262;100876;-82
2023/08/01 11:30:42;;;;;;;4.70;4.00;;;;;;;20.54;78.60;96090.16;105097;1261;97231;-83
2023/08/01 11:33:24;;;;;;;6.00;4.30;;;;;;;20.55;78.78;96081.54;104834;1257;98279;-83
2023/08/01 11:35:57;;;;;;;7.20;4.00;;;;;;;20.56;78.95;96087.88;104800;1257;101352;-84
2023/08/01 11:38:29;;;;;;;5.90;4.40;;;;;;;20.53;79.13;96085.20;104829;1262;100079;-83
2023/08/01 11:41:01;;;;;;;5.00;4.10;;;;;;;20.47;78.88;96087.63;104779;1265;100727;-83
2023/08/01 11:43:42;;;;;;;4.80;4.00;;;;;;;20.43;78.82;96086.45;106508;1259;96787;-84
2023/08/01 11:46:10;;;;;;;4.90;4.10;;;;;;;20.42;78.87;96090.14;105130;1261;97002;-83
2023/08/01 11:48:39;;;;;;;6.40;4.40;;;;;;;20.41;78.97;96089.10;104707;1264;102794;-83
2023/08/01 11:51:06;;;;;;;4.90;4.40;;;;;;;20.41;79.18;96088.14;104759;1261;110865;-83
2023/08/01 11:53:38;;;;;;;4.80;4.30;;;;;;;20.39;78.98;96086.94;104766;1262;100804;-83
2023/08/01 11:56:06;;;;;;;5.30;4.30;;;;;;;20.35;78.87;96088.69;104634;1261;96828;-83
2023/08/01 11:58:42;;;;;;;7.00;4.50;;;;;;;20.30;79.00;96097.97;104727;1262;97074;-83
2023/08/01 12:01:12;;;;;;;6.50;4.40;;;;;;;20.26;79.14;96106.89;104586;1265;102994;-83
2023/08/01 12:03:48;;;;;;;5.40;4.70;;;;;;;20.22;79.52;96105.48;104699;1258;101853;-83
2023/08/01 12:06:18;;;;;;;7.00;4.60;;;;;;;20.18;79.67;96105.56;105111;1262;100619;-83
2023/08/01 12:08:47;;;;;;;5.70;4.70;;;;;;;20.15;79.95;96102.61;105044;1280;96566;-83
2023/08/01 12:11:29;;;;;;;6.90;4.50;;;;;;;20.12;79.92;96100.64;104824;1262;98072;-82
2023/08/01 12:14:13;;;;;;;5.80;4.80;;;;;;;20.04;79.81;96097.83;105010;1262;103134;-83
2023/08/01 12:16:44;;;;;;;5.90;4.70;;;;;;;20.00;80.01;96093.53;104823;1257;102260;-83
2023/08/01 12:19:20;;;;;;;9.70;4.40;;;;;;;19.99;80.09;96099.59;104777;1262;100801;-83
2023/08/01 12:21:49;;;;;;;4.90;4.50;;;;;;;19.93;80.32;96102.38;104704;1273;97378;-83
2023/08/01 12:24:17;;;;;;;4.90;4.40;;;;;;;19.89;80.44;96105.52;104776;1262;97153;-82
2023/08/01 12:26:45;;;;;;;6.50;5.60;;;;;;;19.86;80.26;96109.67;104816;1262;103160;-85
2023/08/01 12:29:13;;;;;;;7.10;5.80;;;;;;;19.80;80.47;96120.31;104788;1262;100531;-84
2023/08/01 12:31:41;;;;;;;6.60;4.70;;;;;;;19.77;80.62;96128.46;104780;1263;99028;-80
2023/08/01 12:34:08;;;;;;;7.20;4.10;;;;;;;19.74;80.27;96129.60;104712;1262;96819;-83
2023/08/01 12:36:36;;;;;;;4.60;3.80;;;;;;;19.69;79.46;96133.77;104752;1261;98173;-83
2023/08/01 12:39:05;;;;;;;4.50;3.50;;;;;;;19.64;78.76;96138.09;104759;1264;102906;-80
2023/08/01 12:41:32;;;;;;;4.10;3.00;;;;;;;19.59;77.82;96137.94;104861;1269;100391;-83
2023/08/01 12:44:00;;;;;;;3.60;2.80;;;;;;;19.54;77.10;96137.23;104702;1262;100717;-82
2023/08/01 12:46:28;;;;;;;5.90;3.00;;;;;;;19.48;76.62;96135.59;105170;1272;96668;-81
2023/08/01 12:48:55;;;;;;;3.40;2.50;;;;;;;19.45;76.53;96134.54;105367;1262;97347;-82
2023/08/01 12:51:23;;;;;;;3.50;2.90;;;;;;;19.43;77.03;96131.52;105418;1262;103106;-82
2023/08/01 12:53:51;;;;;;;3.60;2.50;;;;;;;19.38;76.71;96133.56;105120;1262;109170;-83
2023/08/01 12:56:19;;;;;;;5.20;3.20;;;;;;;19.35;76.45;96133.00;105316;1262;100670;-83
2023/08/01 12:58:47;;;;;;;3.30;3.00;;;;;;;19.33;76.86;96131.60;105237;1262;96646;-83
2023/08/01 13:01:14;;;;;;;4.50;2.90;;;;;;;19.29;77.00;96125.45;105098;1262;97078;-83
2023/08/01 13:03:42;;;;;;;3.20;2.90;;;;;;;19.27;76.90;96120.77;104727;1273;103121;-83
2023/08/01 13:06:13;;;;;;;3.60;3.00;;;;;;;19.25;76.91;96128.08;104749;1259;101782;-84
2023/08/01 13:08:41;;;;;;;6.20;2.70;;;;;;;19.22;76.91;96134.62;104714;1262;100751;-82
2023/08/01 13:11:13;;;;;;;4.80;3.30;;;;;;;19.20;76.72;96136.59;104800;1262;96575;-83
2023/08/01 13:13:42;;;;;;;3.60;3.20;;;;;;;19.17;76.67;96142.21;104817;1262;97091;-83
2023/08/01 13:16:10;;;;;;;4.40;3.20;;;;;;;19.13;76.53;96140.85;104788;1263;102849;-82
2023/08/01 13:18:43;;;;;;;4.10;3.20;;;;;;;19.07;76.32;96141.04;104723;1262;102422;-83
2023/08/01 13:21:11;;;;;;;5.80;3.40;;;;;;;19.00;76.38;96142.95;104746;1262;100463;-82
2023/08/01 13:23:39;;;;;;;3.40;3.00;;;;;;;18.92;76.47;96141.27;104689;1259;96651;-80
2023/08/01 13:26:07;;;;;;;4.40;3.60;;;;;;;18.87;76.69;96138.59;105037;1262;98161;-82
2023/08/01 13:28:34;;;;;;;4.10;3.20;;;;;;;18.79;76.61;96138.55;104808;1259;111893;-82
2023/08/01 13:31:02;;;;;;;5.20;3.60;;;;;;;18.73;76.99;96146.10;104761;1258;102124;-82
2023/08/01 13:33:30;;;;;;;7.30;3.30;;;;;;;18.65;76.95;96145.17;104871;1267;100877;-82
2023/08/01 13:35:59;;;;;;;3.80;3.10;;;;;;;18.58;77.29;96151.21;104799;1262;97878;-82
2023/08/01 13:38:26;;;;;;;6.70;3.30;;;;;;;18.53;77.50;96158.90;104803;1265;96570;-81
2023/08/01 13:40:54;;;;;;;4.50;3.60;;;;;;;18.51;77.67;96158.70;104890;1258;100953;-82
2023/08/01 13:43:22;;;;;;;5.80;3.10;;;;;;;18.52;77.90;96166.67;104749;1267;100035;-82
2023/08/01 13:45:49;;;;;;;4.00;3.30;;;;;;;18.45;78.06;96171.69;104722;1262;98357;-83
2023/08/01 13:48:17;;;;;;;3.90;3.50;;;;;;;18.36;78.28;96174.27;104764;1264;96715;-81
2023/08/01 13:50:45;;;;;;;6.00;3.20;;;;;;;18.33;78.60;96174.48;104700;1273;98269;-81
2023/08/01 13:53:14;;;;;;;6.20;3.10;;;;;;;18.30;78.66;96169.11;104722;1271;102977;-82
2023/08/01 13:55:41;;;;;;;5.60;3.50;;;;;;;18.28;78.80;96161.37;104660;1273;111460;-82
2023/08/01 13:58:09;;;;;;;6.10;3.80;;;;;;;18.22;79.04;96144.95;104710;1262;100502;-83
2023/08/01 14:00:37;;;;;;;6.00;3.80;;;;;;;18.20;79.52;96140.71;104698;1281;96919;-82
2023/08/01 14:03:04;;;;;;;5.90;3.60;;;;;;;18.24;79.79;96149.23;104714;1271;97869;-82
2023/08/01 14:05:32;;;;;;;5.30;3.80;;;;;;;18.26;79.78;96148.33;104917;1263;100730;-80
2023/08/01 14:08:02;;;;;;;5.40;3.80;;;;;;;18.28;79.85;96148.15;105128;1265;100450;-83
2023/08/01 14:10:29;;;;;;;5.30;3.70;;;;;;;18.26;79.91;96141.94;105047;1264;107653;-81
2023/08/01 14:12:57;;;;;;;7.00;4.10;;;;;;;18.24;80.30;96143.05;105074;1263;96571;-79
2023/08/01 14:15:25;;;;;;;6.30;3.80;;;;;;;18.23;80.38;96146.41;104778;1260;97153;-81
2023/08/01 14:17:53;;;;;;;4.60;3.50;;;;;;;18.22;80.51;96151.24;104766;1276;103025;-83